KLM44M EDDL-EBBR
Flight info
| Callsign | KLM44M |
|---|---|
| Flight time | 0h 26m |
| Altitude | 22000 |
| Route | MODRU7Z/05R MODRU Z283 LNO |
| Aircraft | B738/M-SDE2E3FGHIRWXY/LB1 |
Departure
| Time | 2026-05-07 19:49 |
|---|---|
| Airport | Düsseldorf Airport (EDDL) |
Arrival
| Time | 2026-05-07 20:15 |
|---|---|
| Airport | Brussels Airport (EBBR) |
| Time | Latitude | Longitude | Altitude | Speed | Heading |
|---|---|---|---|---|---|
| 2026-05-07 19:32 | 51.28060 | 6.76192 | 155 ft | 0 kts | 180° |
| 2026-05-07 19:39 | 51.28069 | 6.76192 | 155 ft | 2 kts | 182° |
| 2026-05-07 19:39 | 51.28086 | 6.76197 | 155 ft | 3 kts | 199° |
| 2026-05-07 19:39 | 51.28104 | 6.76212 | 155 ft | 3 kts | 218° |
| 2026-05-07 19:40 | 51.28114 | 6.76227 | 155 ft | 0 kts | 230° |
| 2026-05-07 19:43 | 51.28113 | 6.76227 | 155 ft | 0 kts | 230° |
| 2026-05-07 19:43 | 51.28106 | 6.76212 | 155 ft | 6 kts | 233° |
| 2026-05-07 19:44 | 51.28066 | 6.76110 | 155 ft | 15 kts | 245° |
| 2026-05-07 19:44 | 51.28076 | 6.75948 | 155 ft | 15 kts | 262° |
| 2026-05-07 19:44 | 51.28004 | 6.75776 | 155 ft | 20 kts | 232° |
| 2026-05-07 19:44 | 51.27920 | 6.75605 | 155 ft | 22 kts | 232° |
| 2026-05-07 19:45 | 51.27852 | 6.75467 | 155 ft | 10 kts | 232° |
| 2026-05-07 19:45 | 51.27830 | 6.75398 | 155 ft | 9 kts | 271° |
| 2026-05-07 19:45 | 51.27831 | 6.75392 | 155 ft | 0 kts | 279° |
| 2026-05-07 19:46 | 51.27832 | 6.75380 | 155 ft | 4 kts | 284° |
| 2026-05-07 19:46 | 51.27874 | 6.75311 | 155 ft | 13 kts | 331° |
| 2026-05-07 19:47 | 51.27891 | 6.75298 | 155 ft | 0 kts | 335° |
| 2026-05-07 19:47 | 51.27900 | 6.75291 | 155 ft | 7 kts | 334° |
| 2026-05-07 19:48 | 51.27995 | 6.75273 | 155 ft | 19 kts | 42° |
| 2026-05-07 19:48 | 51.28009 | 6.75298 | 155 ft | 0 kts | 54° |
| 2026-05-07 19:48 | 51.28049 | 6.75387 | 155 ft | 35 kts | 52° |
| 2026-05-07 19:49 | 51.28385 | 6.76087 | 155 ft | 119 kts | 52° |
| 2026-05-07 19:49 | 51.29023 | 6.77429 | 322 ft | 175 kts | 53° |
| 2026-05-07 19:49 | 51.29766 | 6.79003 | 1302 ft | 176 kts | 53° |
| 2026-05-07 19:49 | 51.30508 | 6.80567 | 2384 ft | 180 kts | 53° |
| 2026-05-07 19:50 | 51.31311 | 6.82263 | 2993 ft | 204 kts | 53° |
| 2026-05-07 19:50 | 51.32203 | 6.84149 | 3631 ft | 222 kts | 53° |
| 2026-05-07 19:50 | 51.33172 | 6.86212 | 4231 ft | 243 kts | 53° |
| 2026-05-07 19:50 | 51.34238 | 6.88464 | 4808 ft | 264 kts | 46° |
| 2026-05-07 19:51 | 51.35753 | 6.90150 | 5697 ft | 267 kts | 21° |
| 2026-05-07 19:51 | 51.37538 | 6.91090 | 6538 ft | 275 kts | 10° |
| 2026-05-07 19:51 | 51.39434 | 6.91705 | 7422 ft | 279 kts | 6° |
| 2026-05-07 19:51 | 51.41361 | 6.92190 | 8408 ft | 282 kts | 4° |
| 2026-05-07 19:52 | 51.43316 | 6.92681 | 9334 ft | 286 kts | 5° |
| 2026-05-07 19:52 | 51.45262 | 6.93186 | 10213 ft | 291 kts | 5° |
| 2026-05-07 19:52 | 51.47377 | 6.93425 | 10688 ft | 308 kts | 350° |
| 2026-05-07 19:52 | 51.49468 | 6.92416 | 11025 ft | 323 kts | 329° |
| 2026-05-07 19:53 | 51.51264 | 6.90197 | 11332 ft | 339 kts | 310° |
| 2026-05-07 19:53 | 51.52512 | 6.86952 | 11934 ft | 346 kts | 290° |
| 2026-05-07 19:53 | 51.53003 | 6.83172 | 12818 ft | 346 kts | 274° |
| 2026-05-07 19:53 | 51.53242 | 6.79303 | 13624 ft | 351 kts | 280° |
| 2026-05-07 19:54 | 51.53994 | 6.75540 | 14411 ft | 357 kts | 292° |
| 2026-05-07 19:54 | 51.54951 | 6.71846 | 15165 ft | 360 kts | 285° |
| 2026-05-07 19:54 | 51.55234 | 6.67897 | 15898 ft | 363 kts | 268° |
| 2026-05-07 19:54 | 51.54709 | 6.63854 | 16628 ft | 368 kts | 251° |
| 2026-05-07 19:55 | 51.53710 | 6.60048 | 17329 ft | 372 kts | 248° |
| 2026-05-07 19:55 | 51.52670 | 6.56267 | 18001 ft | 377 kts | 246° |
| 2026-05-07 19:55 | 51.51529 | 6.52495 | 18662 ft | 381 kts | 244° |
| 2026-05-07 19:55 | 51.50290 | 6.48643 | 19319 ft | 385 kts | 244° |
| 2026-05-07 19:56 | 51.49065 | 6.44859 | 19942 ft | 388 kts | 244° |
| 2026-05-07 19:56 | 51.47791 | 6.40962 | 20550 ft | 393 kts | 243° |
| 2026-05-07 19:56 | 51.46287 | 6.37669 | 21081 ft | 399 kts | 229° |
| 2026-05-07 19:56 | 51.44067 | 6.34798 | 21655 ft | 408 kts | 214° |
| 2026-05-07 19:57 | 51.41580 | 6.32740 | 21920 ft | 415 kts | 209° |
| 2026-05-07 19:57 | 51.38975 | 6.30712 | 21984 ft | 423 kts | 207° |
| 2026-05-07 19:57 | 51.36330 | 6.29092 | 21994 ft | 432 kts | 202° |
| 2026-05-07 19:57 | 51.33409 | 6.27467 | 21996 ft | 433 kts | 202° |
| 2026-05-07 19:58 | 51.30574 | 6.25860 | 21997 ft | 432 kts | 203° |
| 2026-05-07 19:58 | 51.27758 | 6.24186 | 21997 ft | 431 kts | 203° |
| 2026-05-07 19:58 | 51.24945 | 6.22522 | 21997 ft | 431 kts | 203° |
| 2026-05-07 19:58 | 51.22130 | 6.20867 | 21997 ft | 431 kts | 203° |
| 2026-05-07 19:59 | 51.19310 | 6.19216 | 21987 ft | 432 kts | 203° |
| 2026-05-07 19:59 | 51.16497 | 6.17574 | 21768 ft | 426 kts | 203° |
| 2026-05-07 19:59 | 51.13745 | 6.15972 | 21528 ft | 418 kts | 203° |
| 2026-05-07 19:59 | 51.11032 | 6.14394 | 21276 ft | 412 kts | 203° |
| 2026-05-07 20:00 | 51.08367 | 6.12847 | 21025 ft | 404 kts | 203° |
| 2026-05-07 20:00 | 51.05746 | 6.11326 | 20773 ft | 398 kts | 203° |
| 2026-05-07 20:00 | 51.03165 | 6.09785 | 20520 ft | 393 kts | 206° |
| 2026-05-07 20:00 | 51.00713 | 6.07919 | 20271 ft | 390 kts | 212° |
| 2026-05-07 20:01 | 50.98427 | 6.05624 | 19986 ft | 385 kts | 222° |
| 2026-05-07 20:01 | 50.96657 | 6.02515 | 19540 ft | 378 kts | 239° |
| 2026-05-07 20:01 | 50.95586 | 5.98762 | 19094 ft | 372 kts | 254° |
| 2026-05-07 20:01 | 50.95153 | 5.94798 | 18654 ft | 369 kts | 263° |
| 2026-05-07 20:02 | 50.94795 | 5.90774 | 18202 ft | 366 kts | 262° |
| 2026-05-07 20:02 | 50.94432 | 5.86788 | 17599 ft | 365 kts | 262° |
| 2026-05-07 20:02 | 50.94066 | 5.82788 | 16970 ft | 365 kts | 262° |
| 2026-05-07 20:02 | 50.93702 | 5.78814 | 16347 ft | 365 kts | 262° |
| 2026-05-07 20:03 | 50.93337 | 5.74827 | 15721 ft | 364 kts | 262° |
| 2026-05-07 20:03 | 50.92973 | 5.70875 | 15097 ft | 363 kts | 262° |
| 2026-05-07 20:03 | 50.92612 | 5.66953 | 14476 ft | 361 kts | 262° |
| 2026-05-07 20:03 | 50.92258 | 5.63025 | 13852 ft | 360 kts | 263° |
| 2026-05-07 20:04 | 50.91933 | 5.59112 | 13227 ft | 358 kts | 263° |
| 2026-05-07 20:04 | 50.91594 | 5.55200 | 12601 ft | 357 kts | 262° |
| 2026-05-07 20:04 | 50.91246 | 5.51308 | 11975 ft | 355 kts | 262° |
| 2026-05-07 20:04 | 50.90893 | 5.47440 | 11349 ft | 354 kts | 262° |
| 2026-05-07 20:05 | 50.90537 | 5.43594 | 10810 ft | 350 kts | 262° |
| 2026-05-07 20:05 | 50.90181 | 5.39798 | 10268 ft | 347 kts | 262° |
| 2026-05-07 20:05 | 50.89826 | 5.36041 | 9718 ft | 344 kts | 262° |
| 2026-05-07 20:05 | 50.89660 | 5.32316 | 9162 ft | 341 kts | 274° |
| 2026-05-07 20:06 | 50.90196 | 5.28660 | 8617 ft | 339 kts | 287° |
| 2026-05-07 20:06 | 50.90986 | 5.25141 | 8065 ft | 337 kts | 289° |
| 2026-05-07 20:06 | 50.91785 | 5.21682 | 7511 ft | 329 kts | 289° |
| 2026-05-07 20:06 | 50.92537 | 5.18426 | 7271 ft | 311 kts | 289° |
| 2026-05-07 20:07 | 50.93252 | 5.15330 | 7260 ft | 287 kts | 289° |
| 2026-05-07 20:07 | 50.93920 | 5.12434 | 7205 ft | 268 kts | 289° |
| 2026-05-07 20:07 | 50.94534 | 5.09770 | 7100 ft | 252 kts | 288° |
| 2026-05-07 20:07 | 50.95119 | 5.07230 | 6992 ft | 238 kts | 288° |
| 2026-05-07 20:08 | 50.95676 | 5.04812 | 6637 ft | 234 kts | 288° |
| 2026-05-07 20:08 | 50.96213 | 5.02481 | 6206 ft | 235 kts | 289° |
| 2026-05-07 20:08 | 50.96774 | 5.00038 | 5754 ft | 235 kts | 290° |
| 2026-05-07 20:08 | 50.97335 | 4.97598 | 5304 ft | 236 kts | 291° |
| 2026-05-07 20:09 | 50.97899 | 4.95141 | 4853 ft | 237 kts | 291° |
| 2026-05-07 20:09 | 50.98311 | 4.92615 | 4384 ft | 240 kts | 275° |
| 2026-05-07 20:09 | 50.98159 | 4.90017 | 3967 ft | 244 kts | 259° |
| 2026-05-07 20:10 | 50.97355 | 4.85071 | 3849 ft | 221 kts | 253° |
| 2026-05-07 20:10 | 50.96880 | 4.82797 | 3802 ft | 210 kts | 251° |
| 2026-05-07 20:10 | 50.96429 | 4.80770 | 3794 ft | 183 kts | 251° |
| 2026-05-07 20:10 | 50.96017 | 4.78946 | 3607 ft | 168 kts | 250° |
| 2026-05-07 20:11 | 50.95632 | 4.77261 | 3389 ft | 157 kts | 250° |
| 2026-05-07 20:11 | 50.95272 | 4.75686 | 3192 ft | 151 kts | 250° |
| 2026-05-07 20:11 | 50.94912 | 4.74120 | 3008 ft | 154 kts | 250° |
| 2026-05-07 20:11 | 50.94539 | 4.72496 | 2816 ft | 160 kts | 250° |
| 2026-05-07 20:12 | 50.94153 | 4.70816 | 2598 ft | 163 kts | 250° |
| 2026-05-07 20:12 | 50.93760 | 4.69109 | 2374 ft | 165 kts | 250° |
| 2026-05-07 20:12 | 50.93509 | 4.68020 | 2249 ft | 164 kts | 250° |
| 2026-05-07 20:12 | 50.93121 | 4.66335 | 2025 ft | 164 kts | 250° |
| 2026-05-07 20:13 | 50.92738 | 4.64671 | 1803 ft | 163 kts | 250° |
| 2026-05-07 20:13 | 50.92353 | 4.62998 | 1581 ft | 159 kts | 250° |
| 2026-05-07 20:13 | 50.91982 | 4.61391 | 1370 ft | 153 kts | 250° |
| 2026-05-07 20:13 | 50.91619 | 4.59815 | 1171 ft | 150 kts | 250° |
| 2026-05-07 20:14 | 50.91264 | 4.58274 | 975 ft | 148 kts | 250° |
| 2026-05-07 20:14 | 50.90909 | 4.56733 | 806 ft | 154 kts | 250° |
| 2026-05-07 20:14 | 50.90523 | 4.55060 | 573 ft | 166 kts | 249° |
| 2026-05-07 20:14 | 50.90137 | 4.53377 | 344 ft | 159 kts | 250° |
| 2026-05-07 20:15 | 50.89781 | 4.51856 | 193 ft | 148 kts | 249° |
| 2026-05-07 20:15 | 50.89476 | 4.50546 | 192 ft | 97 kts | 251° |
| 2026-05-07 20:15 | 50.89319 | 4.49829 | 192 ft | 56 kts | 248° |
| 2026-05-07 20:15 | 50.89185 | 4.49278 | 192 ft | 47 kts | 249° |
| 2026-05-07 20:16 | 50.89189 | 4.49083 | 192 ft | 9 kts | 12° |
| 2026-05-07 20:16 | 50.89292 | 4.49138 | 192 ft | 18 kts | 16° |
| 2026-05-07 20:16 | 50.89355 | 4.49165 | 192 ft | 8 kts | 15° |
| 2026-05-07 20:16 | 50.89388 | 4.49179 | 192 ft | 2 kts | 15° |
| 2026-05-07 20:17 | 50.89390 | 4.49180 | 192 ft | 0 kts | 15° |
| 2026-05-07 20:17 | 50.89417 | 4.49191 | 192 ft | 9 kts | 15° |
| 2026-05-07 20:17 | 50.89510 | 4.49222 | 192 ft | 18 kts | 356° |
| 2026-05-07 20:17 | 50.89647 | 4.49263 | 192 ft | 22 kts | 13° |
| 2026-05-07 20:18 | 50.89809 | 4.49328 | 192 ft | 25 kts | 17° |
| 2026-05-07 20:18 | 50.89865 | 4.49355 | 192 ft | 0 kts | 17° |
| 2026-05-07 20:18 | 50.89866 | 4.49355 | 192 ft | 0 kts | 17° |
| 2026-05-07 20:18 | 50.89902 | 4.49370 | 192 ft | 12 kts | 13° |
| 2026-05-07 20:19 | 50.89983 | 4.49402 | 192 ft | 10 kts | 14° |
| 2026-05-07 20:19 | 50.90018 | 4.49416 | 192 ft | 2 kts | 14° |
| 2026-05-07 20:19 | 50.90023 | 4.49418 | 192 ft | 4 kts | 14° |
| 2026-05-07 20:19 | 50.90127 | 4.49461 | 192 ft | 25 kts | 14° |
| 2026-05-07 20:20 | 50.90291 | 4.49530 | 192 ft | 22 kts | 15° |
| 2026-05-07 20:20 | 50.90355 | 4.49559 | 192 ft | 7 kts | 6° |
| 2026-05-07 20:20 | 50.90382 | 4.49531 | 192 ft | 4 kts | 293° |